Winchester Center, Connecticut
Current Conditions -  °F | °C
As of 11:51 PM on Wednesday 24 Dec 2014 (Local Time) from KBDL Reporting Station
Drizzle Drizzle  
Wind Chill: 43°   Ceiling: 200
Heat Index: 43°   Visibility: 0.5mi
Dew Point: 41°   Wind: 0mph
Humidity: 93%   Direction: NA
Pressure: 29.56"   Gusts: NA
Location:  41.9°N, 73.14°W
Report Text: KBDL 250451Z 00000KT 1/2SM R06/P6000FT -DZ BR OVC002 06/05 A2956 RMK AO2 SFC VIS 1 1/2 RAE0356DZB13 SLP010 P0000 T00610050 400610044
Loading
Personal Weather Stations






























Interactive Weather Map New forecast layout! Learn more

10-Day Weather Forecast

Advertisements
Track Severe Weather on mobile